createdAt,value
2019-05-03T00:02:43.348Z,11.65
2019-05-03T00:05:38.824Z,12.68
2019-05-03T00:08:13.116Z,12.30
2019-05-03T00:10:47.199Z,11.97
2019-05-03T00:13:21.886Z,12.63
2019-05-03T00:16:21.900Z,13.03
2019-05-03T00:18:56.504Z,12.90
2019-05-03T00:21:32.566Z,12.70
2019-05-03T00:24:06.470Z,13.18
2019-05-03T00:26:42.317Z,14.10
2019-05-03T00:29:16.315Z,14.00
2019-05-03T00:31:51.719Z,14.13
2019-05-03T00:34:32.355Z,14.38
2019-05-03T00:37:07.075Z,14.45
2019-05-03T00:39:52.625Z,14.83
2019-05-03T00:42:26.332Z,14.58
2019-05-03T00:45:02.125Z,14.50
2019-05-03T00:47:35.636Z,14.58
2019-05-03T00:50:09.005Z,15.70
2019-05-03T00:52:43.328Z,14.85
2019-05-03T00:55:19.292Z,14.58
2019-05-03T00:57:52.890Z,15.15
2019-05-03T01:00:27.103Z,15.25
2019-05-03T01:03:02.204Z,14.87
2019-05-03T01:05:36.122Z,15.20
2019-05-03T01:08:12.509Z,14.90
2019-05-03T01:10:45.709Z,15.70
2019-05-03T01:13:21.683Z,16.05
2019-05-03T01:16:06.506Z,15.58
2019-05-03T01:18:41.758Z,15.13
2019-05-03T01:21:15.166Z,15.00
2019-05-03T01:23:49.487Z,15.15
2019-05-03T01:26:23.162Z,15.13
2019-05-03T01:28:56.994Z,15.80
2019-05-03T01:31:31.814Z,15.43
2019-05-03T01:34:05.527Z,15.05
2019-05-03T01:36:39.755Z,16.50
2019-05-03T01:39:13.836Z,15.48
2019-05-03T01:41:47.945Z,15.72
2019-05-03T01:44:22.080Z,16.30
2019-05-03T01:46:57.944Z,16.48
2019-05-03T01:49:36.849Z,15.78
2019-05-03T01:52:26.931Z,17.50
2019-05-03T01:55:03.099Z,15.98
2019-05-03T01:57:36.076Z,17.10
2019-05-03T02:00:15.034Z,16.70
2019-05-03T02:03:03.051Z,16.48
2019-05-03T02:05:53.245Z,17.32
2019-05-03T02:08:27.479Z,16.80
2019-05-03T02:11:02.228Z,15.83
2019-05-03T02:13:36.173Z,15.55
2019-05-03T02:16:11.588Z,16.67
2019-05-03T02:18:45.039Z,16.77
2019-05-03T02:21:19.278Z,16.25
2019-05-03T02:23:53.082Z,16.20
2019-05-03T02:26:26.794Z,15.98
2019-05-03T02:29:01.842Z,16.90
2019-05-03T02:31:35.912Z,15.98
2019-05-03T02:34:12.334Z,16.25
2019-05-03T02:36:45.282Z,15.72
2019-05-03T02:39:22.629Z,16.45
2019-05-03T02:41:59.714Z,16.90
2019-05-03T02:44:29.760Z,16.27
2019-05-03T02:47:17.487Z,16.32
2019-05-03T02:49:56.227Z,16.10
2019-05-03T02:52:37.513Z,17.48
2019-05-03T02:55:16.083Z,19.17
2019-05-03T02:57:47.928Z,17.50
2019-05-03T03:00:28.135Z,17.65
2019-05-03T03:03:05.404Z,18.05
2019-05-03T03:05:37.275Z,17.57
2019-05-03T03:08:11.188Z,18.98
2019-05-03T03:10:46.219Z,18.35
2019-05-03T03:13:25.326Z,17.67
2019-05-03T03:16:02.542Z,18.30
2019-05-03T03:18:39.120Z,19.35
2019-05-03T03:21:16.914Z,18.45
2019-05-03T03:24:05.885Z,17.92
2019-05-03T03:26:43.091Z,17.98
2019-05-03T03:29:17.385Z,17.98
2019-05-03T03:32:19.645Z,18.48
2019-05-03T03:35:22.170Z,18.15
2019-05-03T03:37:56.076Z,17.52
2019-05-03T03:40:31.799Z,18.15
2019-05-03T03:43:08.485Z,18.67
2019-05-03T03:45:45.446Z,19.17
2019-05-03T03:48:22.936Z,19.70
2019-05-03T03:50:59.108Z,18.90
2019-05-03T03:53:35.745Z,19.67
2019-05-03T03:56:11.309Z,18.37
2019-05-03T03:58:46.445Z,18.45
2019-05-03T04:01:20.192Z,19.40
2019-05-03T04:03:56.180Z,19.20
2019-05-03T04:06:42.107Z,20.27
2019-05-03T04:09:16.250Z,20.10
2019-05-03T04:11:50.729Z,18.45
2019-05-03T04:14:36.022Z,19.37
2019-05-03T04:17:27.442Z,19.10
2019-05-03T04:20:01.293Z,19.32
2019-05-03T04:22:36.285Z,19.62
2019-05-03T04:25:10.938Z,18.95
2019-05-03T04:27:45.554Z,19.35
2019-05-03T04:30:19.678Z,20.80
2019-05-03T04:32:56.444Z,19.92
2019-05-03T04:35:29.211Z,20.20
2019-05-03T04:38:05.296Z,21.82
2019-05-03T04:40:38.397Z,20.37
2019-05-03T04:43:12.187Z,19.48
2019-05-03T04:45:47.044Z,20.05
2019-05-03T04:48:20.727Z,20.90
2019-05-03T04:50:55.162Z,19.30
2019-05-03T04:53:29.973Z,20.35
2019-05-03T04:56:05.678Z,19.62
2019-05-03T04:58:38.767Z,20.27
2019-05-03T05:01:12.073Z,19.85
2019-05-03T05:03:45.847Z,20.08
2019-05-03T05:06:20.038Z,20.15
2019-05-03T05:08:55.116Z,20.35
2019-05-03T05:11:29.413Z,20.43
2019-05-03T05:14:03.168Z,20.68
2019-05-03T05:16:39.532Z,20.57
2019-05-03T05:19:15.177Z,21.20
2019-05-03T05:21:54.927Z,21.23
2019-05-03T05:24:28.013Z,21.55
2019-05-03T05:27:10.439Z,21.40
2019-05-03T05:29:45.130Z,21.20
2019-05-03T05:32:18.725Z,21.35
2019-05-03T05:34:54.834Z,20.65
2019-05-03T05:37:28.341Z,20.27
2019-05-03T05:40:01.711Z,18.23
2019-05-03T05:42:35.944Z,19.37
2019-05-03T05:45:09.763Z,19.10
2019-05-03T05:48:06.170Z,18.37
2019-05-03T05:50:42.359Z,18.98
2019-05-03T05:53:16.445Z,19.15
2019-05-03T05:56:15.774Z,18.62
2019-05-03T05:59:10.958Z,18.10
2019-05-03T06:02:01.145Z,15.45
2019-05-03T06:04:35.396Z,16.25
2019-05-03T06:07:25.840Z,15.60
2019-05-03T06:10:07.169Z,15.50
2019-05-03T06:13:05.248Z,15.40
2019-05-03T06:15:54.811Z,14.98
2019-05-03T06:18:35.387Z,15.25
2019-05-03T06:21:26.678Z,14.00
2019-05-03T06:24:05.228Z,15.95
2019-05-03T06:26:49.273Z,15.32
2019-05-03T06:29:28.397Z,15.30
2019-05-03T06:32:11.320Z,15.50
2019-05-03T06:34:45.510Z,14.53
2019-05-03T06:37:21.308Z,15.43
2019-05-03T06:39:55.077Z,15.08
2019-05-03T06:42:29.313Z,15.60
2019-05-03T06:45:09.682Z,14.05
2019-05-03T06:47:40.183Z,16.05
2019-05-03T06:50:14.625Z,14.43
2019-05-03T06:52:48.155Z,16.10
2019-05-03T06:55:21.522Z,13.22
2019-05-03T06:57:55.603Z,9.23
2019-05-03T07:00:46.104Z,8.78
2019-05-03T07:03:28.497Z,8.65
2019-05-03T07:06:40.344Z,8.05
2019-05-03T07:09:36.375Z,6.05
2019-05-03T07:12:10.134Z,6.40
2019-05-03T07:14:45.005Z,5.20
2019-05-03T07:17:18.045Z,5.00
2019-05-03T07:19:50.584Z,3.95
2019-05-03T07:22:24.460Z,4.30
2019-05-03T07:24:58.181Z,3.80
2019-05-03T07:27:31.813Z,3.67
2019-05-03T07:30:04.835Z,3.50
2019-05-03T07:32:38.363Z,3.12
2019-05-03T07:35:11.432Z,3.15
2019-05-03T07:37:45.066Z,2.55
2019-05-03T07:40:19.027Z,2.17
2019-05-03T07:42:51.972Z,2.20
2019-05-03T07:45:25.386Z,2.00
2019-05-03T07:47:59.262Z,2.47
2019-05-03T07:50:33.175Z,2.20
2019-05-03T07:53:05.342Z,2.12
2019-05-03T07:55:57.852Z,2.17
2019-05-03T07:58:30.485Z,2.20
2019-05-03T08:01:09.319Z,1.87
2019-05-03T08:03:40.187Z,1.55
2019-05-03T08:06:14.947Z,2.00
2019-05-03T08:08:47.650Z,2.20
2019-05-03T08:11:21.340Z,2.20
2019-05-03T08:13:55.018Z,2.30
2019-05-03T08:16:28.665Z,2.30
2019-05-03T08:19:01.157Z,2.58
2019-05-03T08:21:37.739Z,2.30
2019-05-03T08:24:08.697Z,2.52
2019-05-03T08:26:41.597Z,2.85
2019-05-03T08:29:18.590Z,2.55
2019-05-03T08:31:57.195Z,2.50
2019-05-03T08:34:36.926Z,2.27
2019-05-03T08:37:15.241Z,2.17
2019-05-03T08:39:48.264Z,2.33
2019-05-03T08:42:26.349Z,2.27
2019-05-03T08:44:59.343Z,2.52
2019-05-03T08:47:34.392Z,2.30
2019-05-03T08:50:06.958Z,2.40
2019-05-03T08:52:39.831Z,2.33
2019-05-03T08:55:12.752Z,2.20
2019-05-03T08:57:45.507Z,1.92
2019-05-03T09:00:19.781Z,2.10
2019-05-03T09:02:52.261Z,1.90
2019-05-03T09:05:25.218Z,2.20
2019-05-03T09:07:57.682Z,2.10
2019-05-03T09:10:38.924Z,1.92
2019-05-03T09:13:14.727Z,2.12
2019-05-03T09:15:47.487Z,1.80
2019-05-03T09:18:21.062Z,1.72
2019-05-03T09:20:55.642Z,2.20
2019-05-03T09:23:28.895Z,2.10
2019-05-03T09:26:01.227Z,2.35
2019-05-03T09:28:34.922Z,2.15
2019-05-03T09:31:09.180Z,2.00
2019-05-03T09:33:42.446Z,1.77
2019-05-03T09:36:14.959Z,1.90
2019-05-03T09:38:48.816Z,2.40
2019-05-03T09:41:22.335Z,2.30
2019-05-03T09:43:55.759Z,2.67
2019-05-03T09:46:28.565Z,2.35
2019-05-03T09:49:11.097Z,2.55
2019-05-03T09:51:37.289Z,2.45
2019-05-03T09:54:15.982Z,2.77
2019-05-03T09:57:01.046Z,2.83
2019-05-03T09:59:35.105Z,2.90
2019-05-03T10:02:08.969Z,3.37
2019-05-03T10:04:44.624Z,3.47
2019-05-03T10:07:17.883Z,3.00
2019-05-03T10:09:51.085Z,3.27
2019-05-03T10:12:25.700Z,3.27
2019-05-03T10:14:58.877Z,3.27
2019-05-03T10:17:45.844Z,2.92
2019-05-03T10:20:20.381Z,3.12
2019-05-03T10:22:54.700Z,3.10
2019-05-03T10:25:27.575Z,4.50
2019-05-03T10:28:01.421Z,3.65
2019-05-03T10:30:35.473Z,3.65
2019-05-03T10:33:15.512Z,3.52
2019-05-03T10:35:49.199Z,3.62
2019-05-03T10:38:22.048Z,3.77
2019-05-03T10:40:55.676Z,3.30
2019-05-03T10:43:29.994Z,3.90
2019-05-03T10:46:02.429Z,4.28
2019-05-03T10:48:35.773Z,4.47
2019-05-03T10:51:10.976Z,4.08
2019-05-03T10:53:46.114Z,4.47
2019-05-03T10:56:35.771Z,4.20
2019-05-03T10:59:09.495Z,4.30
2019-05-03T11:02:07.368Z,2.95
2019-05-03T11:04:43.488Z,4.22
2019-05-03T11:07:16.546Z,4.08
2019-05-03T11:09:52.404Z,3.95
2019-05-03T11:12:25.590Z,3.60
2019-05-03T11:14:58.877Z,3.83
2019-05-03T11:17:31.224Z,3.15
2019-05-03T11:20:05.652Z,3.02
2019-05-03T11:22:38.962Z,3.10
2019-05-03T11:25:11.730Z,3.40
2019-05-03T11:27:50.274Z,2.95
2019-05-03T11:30:24.590Z,3.00
2019-05-03T11:33:04.748Z,3.12
2019-05-03T11:35:51.516Z,2.67
2019-05-03T11:38:26.618Z,2.77
2019-05-03T11:41:00.089Z,2.98
2019-05-03T11:43:34.985Z,2.98
2019-05-03T11:46:07.587Z,2.50
2019-05-03T11:48:39.901Z,2.80
2019-05-03T11:51:12.705Z,2.83
2019-05-03T11:53:46.055Z,2.70
2019-05-03T11:56:19.965Z,2.40
2019-05-03T11:58:54.855Z,2.85
2019-05-03T12:01:45.096Z,2.37
2019-05-03T12:04:17.592Z,2.77
2019-05-03T12:06:51.034Z,2.45
2019-05-03T12:09:24.451Z,3.08
2019-05-03T12:11:58.327Z,2.60
2019-05-03T12:14:31.070Z,2.22
2019-05-03T12:17:18.126Z,2.87
2019-05-03T12:19:46.639Z,3.15
2019-05-03T12:22:19.786Z,2.77
2019-05-03T12:24:54.416Z,3.45
2019-05-03T12:27:28.352Z,3.20
2019-05-03T12:30:01.829Z,3.83
2019-05-03T12:32:35.196Z,3.02
2019-05-03T12:35:08.152Z,3.40
2019-05-03T12:37:40.898Z,3.83
2019-05-03T12:40:15.062Z,3.47
2019-05-03T12:42:47.667Z,3.65
2019-05-03T12:45:21.077Z,4.00
2019-05-03T12:47:55.719Z,3.25
2019-05-03T12:50:29.669Z,3.17
2019-05-03T12:53:04.748Z,3.35
2019-05-03T12:55:38.677Z,3.10
2019-05-03T12:58:12.386Z,3.45
2019-05-03T13:00:57.545Z,3.45
2019-05-03T13:03:37.026Z,4.03
2019-05-03T13:06:11.322Z,4.10
2019-05-03T13:08:46.788Z,3.33
2019-05-03T13:11:20.079Z,3.52
2019-05-03T13:13:55.545Z,4.05
2019-05-03T13:16:29.747Z,4.10
2019-05-03T13:19:05.539Z,3.90
2019-05-03T13:21:38.761Z,4.90
2019-05-03T13:24:22.502Z,4.00
2019-05-03T13:26:46.239Z,3.75
2019-05-03T13:29:19.458Z,4.15
2019-05-03T13:32:00.678Z,3.42
2019-05-03T13:34:28.757Z,3.62
2019-05-03T13:37:03.066Z,3.42
2019-05-03T13:39:36.136Z,3.67
2019-05-03T13:42:10.163Z,3.30
2019-05-03T13:44:44.798Z,2.95
2019-05-03T13:47:18.381Z,3.25
2019-05-03T13:49:51.764Z,2.80
2019-05-03T13:52:25.159Z,3.10
2019-05-03T13:54:57.863Z,3.60
2019-05-03T13:57:31.277Z,3.58
2019-05-03T14:00:05.815Z,3.70
2019-05-03T14:02:39.256Z,3.80
2019-05-03T14:05:12.070Z,4.28
2019-05-03T14:07:46.318Z,4.05
2019-05-03T14:10:19.760Z,4.03
2019-05-03T14:12:52.228Z,4.78
2019-05-03T14:15:25.771Z,4.05
2019-05-03T14:17:58.503Z,4.55
2019-05-03T14:20:49.612Z,3.33
2019-05-03T14:23:22.451Z,3.37
2019-05-03T14:25:55.354Z,3.40
2019-05-03T14:28:28.086Z,3.10
2019-05-03T14:31:01.827Z,3.50
2019-05-03T14:33:35.470Z,4.60
2019-05-03T14:36:08.961Z,3.47
2019-05-03T14:38:42.406Z,3.35
2019-05-03T14:41:15.626Z,3.35
2019-05-03T14:43:49.743Z,3.25
2019-05-03T14:46:32.817Z,3.62
2019-05-03T14:48:58.018Z,3.02
2019-05-03T14:51:31.370Z,3.00
2019-05-03T14:54:05.331Z,2.47
2019-05-03T14:56:59.873Z,2.30
2019-05-03T14:59:54.760Z,2.70
2019-05-03T15:02:47.486Z,2.95
2019-05-03T15:05:19.356Z,2.37
2019-05-03T15:07:55.657Z,2.83
2019-05-03T15:10:27.901Z,2.40
2019-05-03T15:13:01.908Z,2.02
2019-05-03T15:15:35.881Z,2.70
2019-05-03T15:18:07.931Z,2.58
2019-05-03T15:20:41.393Z,2.60
2019-05-03T15:23:15.666Z,2.50
2019-05-03T15:25:48.069Z,2.50
2019-05-03T15:28:21.841Z,2.80
2019-05-03T15:30:56.106Z,2.55
2019-05-03T15:33:29.913Z,2.62
2019-05-03T15:36:04.756Z,2.30
2019-05-03T15:38:38.223Z,2.10
2019-05-03T15:41:12.032Z,2.40
2019-05-03T15:44:00.555Z,2.65
2019-05-03T15:46:49.209Z,2.35
2019-05-03T15:49:27.365Z,2.30
2019-05-03T15:51:59.919Z,2.02
2019-05-03T15:54:35.208Z,2.40
2019-05-03T15:57:09.045Z,2.10
2019-05-03T15:59:44.525Z,2.62
2019-05-03T16:02:17.987Z,2.52
2019-05-03T16:04:51.280Z,2.40
2019-05-03T16:07:25.110Z,2.47
2019-05-03T16:09:59.205Z,2.83
2019-05-03T16:12:34.432Z,2.45
2019-05-03T16:15:07.583Z,2.87
2019-05-03T16:17:41.227Z,3.17
2019-05-03T16:20:15.379Z,2.45
2019-05-03T16:22:49.590Z,3.22
2019-05-03T16:25:25.119Z,3.20
2019-05-03T16:28:10.206Z,3.62
2019-05-03T16:30:51.914Z,3.17
2019-05-03T16:33:27.823Z,3.87
2019-05-03T16:36:01.335Z,4.12
2019-05-03T16:38:35.584Z,3.72
2019-05-03T16:41:09.685Z,3.65
2019-05-03T16:43:45.381Z,3.30
2019-05-03T16:46:19.117Z,3.50
2019-05-03T16:48:53.330Z,3.65
2019-05-03T16:51:27.647Z,3.33
2019-05-03T16:54:01.801Z,4.20
2019-05-03T16:56:35.420Z,4.25
2019-05-03T16:59:09.580Z,4.22
2019-05-03T17:01:44.479Z,3.87
2019-05-03T17:04:45.690Z,4.80
2019-05-03T17:07:50.295Z,3.80
2019-05-03T17:10:36.812Z,4.33
2019-05-03T17:13:10.751Z,3.80
2019-05-03T17:15:45.023Z,3.70
2019-05-03T17:18:19.444Z,4.33
2019-05-03T17:20:54.677Z,3.52
2019-05-03T17:23:27.740Z,3.20
2019-05-03T17:26:01.892Z,2.58
2019-05-03T17:28:35.401Z,3.70
2019-05-03T17:31:09.428Z,2.75
2019-05-03T17:33:51.435Z,2.87
2019-05-03T17:36:16.959Z,2.35
2019-05-03T17:38:51.496Z,2.30
2019-05-03T17:41:49.033Z,2.58
2019-05-03T17:44:28.031Z,6.40
2019-05-03T17:47:01.071Z,7.15
2019-05-03T17:49:34.814Z,7.50
2019-05-03T17:52:26.588Z,7.47
2019-05-03T17:55:10.926Z,7.60
2019-05-03T17:58:10.842Z,8.50
2019-05-03T18:01:08.061Z,6.87
2019-05-03T18:03:44.899Z,6.58
2019-05-03T18:06:25.502Z,6.80
2019-05-03T18:09:35.006Z,6.45
2019-05-03T18:12:08.153Z,6.15
2019-05-03T18:14:41.356Z,6.03
2019-05-03T18:17:14.815Z,5.50
2019-05-03T18:19:48.446Z,5.90
2019-05-03T18:22:21.132Z,5.67
2019-05-03T18:24:54.663Z,5.72
2019-05-03T18:27:27.644Z,6.15
2019-05-03T18:29:59.604Z,5.78
2019-05-03T18:32:34.349Z,5.65
2019-05-03T18:35:07.154Z,6.00
2019-05-03T18:37:40.655Z,7.30
2019-05-03T18:40:13.506Z,6.20
2019-05-03T18:42:52.001Z,6.17
2019-05-03T18:45:37.470Z,5.83
2019-05-03T18:48:09.467Z,4.75
2019-05-03T18:50:42.857Z,3.98
2019-05-03T18:53:15.823Z,3.50
2019-05-03T18:55:48.604Z,3.85
2019-05-03T18:58:22.067Z,4.47
2019-05-03T19:00:54.904Z,7.50
2019-05-03T19:03:27.556Z,16.62
2019-05-03T19:06:02.715Z,7.85
2019-05-03T19:08:56.635Z,6.50
2019-05-03T19:11:57.182Z,10.23
2019-05-03T19:14:30.632Z,17.80
2019-05-03T19:17:22.231Z,16.52
2019-05-03T19:19:56.686Z,10.23
2019-05-03T19:22:28.588Z,9.03
2019-05-03T19:25:01.404Z,6.92
2019-05-03T19:27:34.744Z,7.50
2019-05-03T19:30:07.178Z,6.30
2019-05-03T19:32:39.524Z,6.45
2019-05-03T19:35:13.211Z,7.55
2019-05-03T19:37:46.590Z,7.55
2019-05-03T19:40:20.433Z,6.65
2019-05-03T19:42:52.969Z,7.72
2019-05-03T19:45:25.228Z,7.65
2019-05-03T19:47:58.165Z,7.05
2019-05-03T19:50:30.565Z,6.58
2019-05-03T19:53:31.019Z,6.53
2019-05-03T19:56:05.413Z,6.55
2019-05-03T19:58:38.461Z,7.22
2019-05-03T20:01:42.152Z,7.08
2019-05-03T20:04:42.573Z,8.08
2019-05-03T20:07:31.701Z,7.92
2019-05-03T20:10:05.202Z,8.60
2019-05-03T20:12:39.851Z,8.73
2019-05-03T20:15:14.488Z,7.37
2019-05-03T20:17:56.550Z,7.35
2019-05-03T20:20:21.832Z,7.70
2019-05-03T20:22:54.879Z,7.00
2019-05-03T20:25:27.063Z,6.47
2019-05-03T20:28:00.140Z,5.58
2019-05-03T20:30:34.688Z,5.33
2019-05-03T20:33:06.836Z,5.05
2019-05-03T20:35:39.688Z,5.58
2019-05-03T20:38:12.384Z,5.10
2019-05-03T20:40:45.151Z,5.58
2019-05-03T20:43:35.112Z,4.60
2019-05-03T20:46:20.350Z,4.78
2019-05-03T20:48:55.205Z,5.50
2019-05-03T20:51:28.214Z,5.25
2019-05-03T20:54:01.955Z,5.60
2019-05-03T20:56:34.341Z,5.37
2019-05-03T20:59:06.790Z,5.03
2019-05-03T21:01:39.689Z,5.08
2019-05-03T21:04:12.528Z,5.70
2019-05-03T21:06:45.483Z,6.75
2019-05-03T21:09:18.907Z,7.83
2019-05-03T21:11:51.403Z,7.78
2019-05-03T21:14:24.497Z,9.23
2019-05-03T21:17:14.921Z,9.45
2019-05-03T21:20:14.708Z,8.33
2019-05-03T21:22:49.252Z,7.85
2019-05-03T21:25:36.426Z,6.10
2019-05-03T21:28:07.973Z,6.90
2019-05-03T21:30:39.956Z,5.67
2019-05-03T21:33:15.645Z,5.80
2019-05-03T21:35:48.218Z,5.42
2019-05-03T21:38:20.695Z,5.65
2019-05-03T21:40:54.639Z,5.03
2019-05-03T21:43:29.134Z,4.85
2019-05-03T21:46:15.103Z,4.85
2019-05-03T21:49:06.996Z,5.25
2019-05-03T21:51:41.269Z,5.62
2019-05-03T21:54:15.277Z,6.15
2019-05-03T21:56:49.802Z,8.13
2019-05-03T21:59:26.452Z,7.35
2019-05-03T22:02:00.160Z,8.05
2019-05-03T22:04:35.160Z,8.00
2019-05-03T22:07:09.842Z,7.17
2019-05-03T22:09:45.325Z,6.85
2019-05-03T22:12:19.708Z,7.25
2019-05-03T22:14:58.807Z,6.50
2019-05-03T22:17:48.898Z,6.12
2019-05-03T22:20:35.033Z,5.55
2019-05-03T22:23:19.271Z,5.90
2019-05-03T22:25:54.312Z,4.85
2019-05-03T22:28:27.833Z,5.42
2019-05-03T22:31:04.369Z,5.45
2019-05-03T22:33:37.984Z,5.58
2019-05-03T22:36:12.101Z,5.45
2019-05-03T22:38:46.423Z,5.70
2019-05-03T22:41:20.500Z,5.60
2019-05-03T22:43:54.745Z,5.58
2019-05-03T22:46:28.932Z,5.60
2019-05-03T22:49:04.850Z,5.60
2019-05-03T22:51:38.313Z,5.40
2019-05-03T22:54:11.628Z,5.53
2019-05-03T22:56:45.480Z,5.80
2019-05-03T22:59:18.778Z,5.05
2019-05-03T23:01:54.478Z,5.15
2019-05-03T23:04:26.960Z,5.87
2019-05-03T23:07:01.251Z,5.92
2019-05-03T23:09:35.255Z,6.00
2019-05-03T23:12:09.143Z,6.00
2019-05-03T23:14:44.688Z,5.40
2019-05-03T23:17:19.252Z,5.90
2019-05-03T23:19:56.944Z,6.05
2019-05-03T23:22:32.691Z,5.78
2019-05-03T23:25:06.706Z,6.58
2019-05-03T23:27:39.969Z,6.37
2019-05-03T23:30:15.358Z,5.70
2019-05-03T23:32:49.864Z,5.85
2019-05-03T23:35:24.644Z,5.45
2019-05-03T23:37:58.070Z,5.90
2019-05-03T23:40:31.762Z,6.95
2019-05-03T23:43:05.649Z,6.50
2019-05-03T23:45:39.570Z,5.80
2019-05-03T23:48:14.951Z,7.60
2019-05-03T23:50:48.853Z,5.92
2019-05-03T23:53:22.987Z,5.72
2019-05-03T23:56:01.676Z,6.05
2019-05-03T23:58:36.022Z,6.78
